createdAt,value
2023-02-05T00:02:31.682Z,11.60
2023-02-05T00:05:18.519Z,11.80
2023-02-05T00:08:05.618Z,11.00
2023-02-05T00:10:52.776Z,10.90
2023-02-05T00:13:41.860Z,11.60
2023-02-05T00:16:28.992Z,11.30
2023-02-05T00:19:15.969Z,10.70
2023-02-05T00:22:03.377Z,10.60
2023-02-05T00:24:50.124Z,11.10
2023-02-05T00:27:36.636Z,10.70
2023-02-05T00:30:23.883Z,11.30
2023-02-05T00:33:10.393Z,10.60
2023-02-05T00:35:57.021Z,11.00
2023-02-05T00:38:45.090Z,10.20
2023-02-05T00:41:31.651Z,10.40
2023-02-05T00:44:18.305Z,10.40
2023-02-05T00:47:05.444Z,9.90
2023-02-05T00:49:51.877Z,9.90
2023-02-05T00:52:38.577Z,10.10
2023-02-05T00:55:26.314Z,9.20
2023-02-05T00:58:13.377Z,9.20
2023-02-05T01:00:59.847Z,9.40
2023-02-05T01:03:46.349Z,9.50
2023-02-05T01:06:33.205Z,9.80
2023-02-05T01:09:19.809Z,10.30
2023-02-05T01:12:06.876Z,9.90
2023-02-05T01:14:54.268Z,9.50
2023-02-05T01:17:41.082Z,10.40
2023-02-05T01:20:28.380Z,9.50
2023-02-05T01:23:15.265Z,9.80
2023-02-05T01:26:02.243Z,10.00
2023-02-05T01:28:49.520Z,9.80
2023-02-05T01:31:36.246Z,9.80
2023-02-05T01:34:23.044Z,9.60
2023-02-05T01:37:09.531Z,9.10
2023-02-05T01:39:57.138Z,8.10
2023-02-05T01:42:43.906Z,9.40
2023-02-05T01:45:32.858Z,8.50
2023-02-05T01:48:25.031Z,8.30
2023-02-05T01:51:14.517Z,8.00
2023-02-05T01:54:01.944Z,7.60
2023-02-05T01:57:17.422Z,7.50
2023-02-05T02:00:05.250Z,8.10
2023-02-05T02:02:52.808Z,7.70
2023-02-05T02:05:41.068Z,7.00
2023-02-05T02:08:27.708Z,6.90
2023-02-05T02:11:17.461Z,7.70
2023-02-05T02:14:07.117Z,7.30
2023-02-05T02:16:53.724Z,7.50
2023-02-05T02:20:00.565Z,7.70
2023-02-05T02:22:56.349Z,7.60
2023-02-05T02:26:16.775Z,7.50
2023-02-05T02:29:04.415Z,8.50
2023-02-05T02:32:10.899Z,7.60
2023-02-05T02:35:40.097Z,8.10
2023-02-05T02:38:32.150Z,8.60
2023-02-05T02:41:32.528Z,7.80
2023-02-05T02:44:45.790Z,8.30
2023-02-05T02:47:38.386Z,7.60
2023-02-05T02:50:36.011Z,7.50
2023-02-05T02:53:28.415Z,8.00
2023-02-05T02:56:17.115Z,7.50
2023-02-05T02:59:10.866Z,7.40
2023-02-05T03:02:02.560Z,7.70
2023-02-05T03:04:58.998Z,7.40
2023-02-05T03:07:54.516Z,7.50
2023-02-05T03:10:48.016Z,7.00
2023-02-05T03:13:35.497Z,7.50
2023-02-05T03:16:24.649Z,7.60
2023-02-05T03:19:11.535Z,7.00
2023-02-05T03:22:02.964Z,7.40
2023-02-05T03:24:51.099Z,7.70
2023-02-05T03:27:38.671Z,7.50
2023-02-05T03:30:31.344Z,8.20
2023-02-05T03:38:29.383Z,6.80
2023-02-05T03:41:45.624Z,7.90
2023-02-05T03:45:01.404Z,8.10
2023-02-05T03:48:11.942Z,7.60
2023-02-05T03:51:22.971Z,8.30
2023-02-05T03:54:27.248Z,7.70
2023-02-05T03:57:28.797Z,7.40
2023-02-05T04:00:16.017Z,7.80
2023-02-05T04:03:03.227Z,7.50
2023-02-05T04:05:49.685Z,7.40
2023-02-05T04:08:36.285Z,7.50
2023-02-05T04:11:23.411Z,7.50
2023-02-05T04:14:09.875Z,7.10
2023-02-05T04:16:56.339Z,7.60
2023-02-05T04:19:42.877Z,7.80
2023-02-05T04:22:29.641Z,7.60
2023-02-05T04:25:16.431Z,7.70
2023-02-05T04:28:03.306Z,8.00
2023-02-05T04:30:49.982Z,7.90
2023-02-05T04:33:36.858Z,7.70
2023-02-05T04:36:23.225Z,7.70
2023-02-05T04:39:09.912Z,8.50
2023-02-05T04:41:56.667Z,8.60
2023-02-05T04:44:43.399Z,8.90
2023-02-05T04:47:30.677Z,8.90
2023-02-05T04:50:18.507Z,9.00
2023-02-05T04:53:05.225Z,8.20
2023-02-05T04:55:52.052Z,8.40
2023-02-05T04:58:39.531Z,8.10
2023-02-05T05:01:26.151Z,8.70
2023-02-05T05:04:12.860Z,8.80
2023-02-05T05:06:59.545Z,8.40
2023-02-05T05:09:45.914Z,8.50
2023-02-05T05:12:33.187Z,12.60
2023-02-05T05:15:19.841Z,10.70
2023-02-05T05:18:06.503Z,8.90
2023-02-05T05:20:53.331Z,9.40
2023-02-05T05:23:39.879Z,9.70
2023-02-05T05:26:26.645Z,9.00
2023-02-05T05:29:14.457Z,8.70
2023-02-05T05:32:01.744Z,9.30
2023-02-05T05:34:48.445Z,8.70
2023-02-05T05:37:34.855Z,9.30
2023-02-05T05:40:39.741Z,8.80
2023-02-05T05:43:45.306Z,8.30
2023-02-05T05:46:32.006Z,8.50
2023-02-05T05:49:18.649Z,8.90
2023-02-05T05:52:05.518Z,11.10
2023-02-05T05:55:18.865Z,9.90
2023-02-05T05:58:07.033Z,10.30
2023-02-05T06:00:54.998Z,9.40
2023-02-05T06:03:43.315Z,9.40
2023-02-05T06:06:29.587Z,8.50
2023-02-05T06:09:16.330Z,8.40
2023-02-05T06:12:03.163Z,8.40
2023-02-05T06:14:49.494Z,7.70
2023-02-05T06:17:36.327Z,8.00
2023-02-05T06:20:22.878Z,8.20
2023-02-05T06:23:10.167Z,8.40
2023-02-05T06:25:57.187Z,8.40
2023-02-05T06:28:43.833Z,9.10
2023-02-05T06:31:33.246Z,9.00
2023-02-05T06:34:20.144Z,8.80
2023-02-05T06:37:10.230Z,8.70
2023-02-05T06:39:57.960Z,8.00
2023-02-05T06:42:46.067Z,8.60
2023-02-05T06:45:32.969Z,8.20
2023-02-05T06:48:22.641Z,8.30
2023-02-05T06:51:11.379Z,7.80
2023-02-05T06:54:00.645Z,8.20
2023-02-05T06:56:47.903Z,7.80
2023-02-05T06:59:34.524Z,7.80
2023-02-05T07:02:24.680Z,8.20
2023-02-05T07:05:15.219Z,7.30
2023-02-05T07:08:04.251Z,7.40
2023-02-05T07:10:51.546Z,7.70
2023-02-05T07:13:38.387Z,7.70
2023-02-05T07:16:25.083Z,7.60
2023-02-05T07:19:11.783Z,7.30
2023-02-05T07:21:58.462Z,8.00
2023-02-05T07:24:45.404Z,7.30
2023-02-05T07:27:32.950Z,7.50
2023-02-05T07:30:22.289Z,7.60
2023-02-05T07:33:10.249Z,7.60
2023-02-05T07:36:08.125Z,7.70
2023-02-05T07:38:54.810Z,7.50
2023-02-05T07:41:41.177Z,8.30
2023-02-05T07:44:27.648Z,8.10
2023-02-05T07:47:16.003Z,8.10
2023-02-05T07:50:02.521Z,7.80
2023-02-05T07:52:50.359Z,7.40
2023-02-05T07:55:36.674Z,7.90
2023-02-05T07:58:26.102Z,7.50
2023-02-05T08:01:13.536Z,7.50
2023-02-05T08:04:02.274Z,7.20
2023-02-05T08:06:49.690Z,7.00
2023-02-05T08:09:36.266Z,7.60
2023-02-05T08:12:23.009Z,7.40
2023-02-05T08:15:10.095Z,7.60
2023-02-05T08:17:56.476Z,6.80
2023-02-05T08:20:43.040Z,6.90
2023-02-05T08:23:29.622Z,6.40
2023-02-05T08:26:17.837Z,6.60
2023-02-05T08:29:04.841Z,7.00
2023-02-05T08:31:51.351Z,6.90
2023-02-05T08:34:45.552Z,6.30
2023-02-05T08:37:33.043Z,6.10
2023-02-05T08:40:20.450Z,6.30
2023-02-05T08:43:08.699Z,6.60
2023-02-05T08:45:55.294Z,6.80
2023-02-05T08:48:42.416Z,6.80
2023-02-05T08:51:30.627Z,6.90
2023-02-05T08:54:17.275Z,7.10
2023-02-05T08:57:05.928Z,6.80
2023-02-05T08:59:55.935Z,6.80
2023-02-05T09:02:43.357Z,6.60
2023-02-05T09:05:29.847Z,7.10
2023-02-05T09:08:16.634Z,7.30
2023-02-05T09:11:03.679Z,7.30
2023-02-05T09:13:54.328Z,7.60
2023-02-05T09:16:41.569Z,6.50
2023-02-05T09:19:28.416Z,5.80
2023-02-05T09:22:15.019Z,5.90
2023-02-05T09:25:03.606Z,6.00
2023-02-05T09:27:50.275Z,5.40
2023-02-05T09:30:39.169Z,6.10
2023-02-05T09:33:26.569Z,4.60
2023-02-05T09:36:18.873Z,4.70
2023-02-05T09:39:16.843Z,4.70
2023-02-05T09:42:35.073Z,4.80
2023-02-05T09:45:42.718Z,4.30
2023-02-05T09:48:49.648Z,4.40
2023-02-05T09:51:46.395Z,5.20
2023-02-05T09:54:38.735Z,4.40
2023-02-05T09:57:39.545Z,3.80
2023-02-05T10:00:30.737Z,4.30
2023-02-05T10:04:01.086Z,4.40
2023-02-05T10:06:54.595Z,4.00
2023-02-05T10:09:54.892Z,4.30
2023-02-05T10:13:06.404Z,4.30
2023-02-05T10:16:40.427Z,4.40
2023-02-05T10:20:03.280Z,4.30
2023-02-05T10:23:17.747Z,4.40
2023-02-05T10:26:12.365Z,4.10
2023-02-05T10:29:35.666Z,4.20
2023-02-05T10:32:24.629Z,4.20
2023-02-05T10:35:24.976Z,4.00
2023-02-05T10:38:21.289Z,4.20
2023-02-05T10:41:20.206Z,4.60
2023-02-05T10:44:22.349Z,4.60
2023-02-05T10:47:41.609Z,5.00
2023-02-05T10:50:47.724Z,5.00
2023-02-05T10:53:36.352Z,5.30
2023-02-05T10:56:25.370Z,4.80
2023-02-05T10:59:22.410Z,5.50
2023-02-05T11:02:09.888Z,5.20
2023-02-05T11:05:01.589Z,5.00
2023-02-05T11:07:50.969Z,5.80
2023-02-05T11:10:38.233Z,5.80
2023-02-05T11:13:25.155Z,5.70
2023-02-05T11:16:12.786Z,5.60
2023-02-05T11:19:01.455Z,5.60
2023-02-05T11:21:55.713Z,5.90
2023-02-05T11:24:42.684Z,5.80
2023-02-05T11:27:32.828Z,5.30
2023-02-05T11:30:55.883Z,5.90
2023-02-05T11:34:22.014Z,5.40
2023-02-05T11:38:02.331Z,6.50
2023-02-05T11:41:58.055Z,5.80
2023-02-05T11:45:45.171Z,7.20
2023-02-05T11:52:44.950Z,7.30
2023-02-05T11:56:56.337Z,6.40
2023-02-05T12:00:29.947Z,6.00
2023-02-05T12:04:11.783Z,6.00
2023-02-05T12:07:57.653Z,5.60
2023-02-05T12:12:07.048Z,6.10
2023-02-05T12:15:35.617Z,6.30
2023-02-05T12:19:55.112Z,6.10
2023-02-05T12:23:57.521Z,5.70
2023-02-05T12:30:31.741Z,6.30
2023-02-05T12:34:33.563Z,6.30
2023-02-05T12:38:51.827Z,6.10
2023-02-05T12:42:43.199Z,5.70
2023-02-05T12:51:32.876Z,5.20
2023-02-05T12:55:24.384Z,5.10
2023-02-05T12:58:54.052Z,4.90
2023-02-05T13:02:11.931Z,5.30
2023-02-05T13:09:53.534Z,4.90
2023-02-05T13:13:39.925Z,5.20
2023-02-05T13:17:42.001Z,5.10
2023-02-05T13:21:49.406Z,5.10
2023-02-05T13:26:05.148Z,5.20
2023-02-05T13:29:57.721Z,5.30
2023-02-05T13:33:02.997Z,7.00
2023-02-05T13:36:40.683Z,7.00
2023-02-05T13:40:42.273Z,6.10
2023-02-05T13:47:40.178Z,6.80
2023-02-05T13:50:55.376Z,5.70
2023-02-05T13:54:17.418Z,6.10
2023-02-05T13:57:41.707Z,6.10
2023-02-05T14:00:29.254Z,6.80
2023-02-05T14:03:31.772Z,6.40
2023-02-05T14:06:38.888Z,6.30
2023-02-05T14:09:37.756Z,6.80
2023-02-05T14:12:30.470Z,8.50
2023-02-05T14:15:18.408Z,7.70
2023-02-05T14:18:08.027Z,8.40
2023-02-05T14:20:54.657Z,7.20
2023-02-05T14:23:47.863Z,6.70
2023-02-05T14:26:51.417Z,6.00
2023-02-05T14:29:47.122Z,5.90
2023-02-05T14:32:40.120Z,7.00
2023-02-05T14:35:33.311Z,5.90
2023-02-05T14:38:31.252Z,5.80
2023-02-05T14:41:29.118Z,5.60
2023-02-05T14:44:23.804Z,5.70
2023-02-05T14:47:27.488Z,6.00
2023-02-05T14:50:28.438Z,5.50
2023-02-05T14:53:30.265Z,6.50
2023-02-05T14:56:40.809Z,6.40
2023-02-05T14:59:38.492Z,7.30
2023-02-05T15:02:59.151Z,6.70
2023-02-05T15:05:50.698Z,6.30
2023-02-05T15:08:49.306Z,6.00
2023-02-05T15:12:28.289Z,5.50
2023-02-05T15:15:35.745Z,5.40
2023-02-05T15:18:33.131Z,5.20
2023-02-05T15:21:26.068Z,5.00
2023-02-05T15:24:24.792Z,4.90
2023-02-05T15:27:23.627Z,5.10
2023-02-05T15:30:18.473Z,5.90
2023-02-05T15:33:30.061Z,6.50
2023-02-05T15:36:43.768Z,7.40
2023-02-05T15:39:58.497Z,6.80
2023-02-05T15:42:51.898Z,7.30
2023-02-05T15:45:44.971Z,6.80
2023-02-05T15:48:34.775Z,7.10
2023-02-05T15:51:28.132Z,7.50
2023-02-05T15:54:21.353Z,7.50
2023-02-05T15:57:16.280Z,7.20
2023-02-05T16:00:07.975Z,7.20
2023-02-05T16:02:57.875Z,6.10
2023-02-05T16:05:52.960Z,6.70
2023-02-05T16:08:47.416Z,6.30
2023-02-05T16:11:35.952Z,6.90
2023-02-05T16:14:33.734Z,8.00
2023-02-05T16:17:28.762Z,7.40
2023-02-05T16:20:32.466Z,8.20
2023-02-05T16:23:38.147Z,7.90
2023-02-05T16:26:28.947Z,7.40
2023-02-05T16:29:36.121Z,8.00
2023-02-05T16:32:35.736Z,7.70
2023-02-05T16:35:27.217Z,7.70
2023-02-05T16:38:20.842Z,7.70
2023-02-05T16:41:25.944Z,7.50
2023-02-05T16:44:32.900Z,7.80
2023-02-05T16:47:20.695Z,8.10
2023-02-05T16:50:33.163Z,10.20
2023-02-05T16:53:26.867Z,9.50
2023-02-05T16:56:27.197Z,8.90
2023-02-05T16:59:23.340Z,8.00
2023-02-05T17:02:29.543Z,8.70
2023-02-05T17:05:28.017Z,8.70
2023-02-05T17:08:15.072Z,8.30
2023-02-05T17:11:06.928Z,8.40
2023-02-05T17:14:12.578Z,8.20
2023-02-05T17:17:04.610Z,8.60
2023-02-05T17:20:11.798Z,7.90
2023-02-05T17:22:59.359Z,8.20
2023-02-05T17:25:56.081Z,7.90
2023-02-05T17:28:50.295Z,7.40
2023-02-05T17:31:39.355Z,8.10
2023-02-05T17:34:27.122Z,8.80
2023-02-05T17:37:15.675Z,14.70
2023-02-05T17:40:02.987Z,14.60
2023-02-05T17:42:50.280Z,32.30
2023-02-05T17:45:41.194Z,17.00
2023-02-05T17:48:28.277Z,15.60
2023-02-05T17:51:20.744Z,15.50
2023-02-05T17:54:34.226Z,17.00
2023-02-05T17:57:22.748Z,17.50
2023-02-05T18:00:25.296Z,16.80
2023-02-05T18:03:12.598Z,10.40
2023-02-05T18:06:00.648Z,12.10
2023-02-05T18:08:47.944Z,13.40
2023-02-05T18:11:35.685Z,12.00
2023-02-05T18:14:23.960Z,12.10
2023-02-05T18:17:11.487Z,11.80
2023-02-05T18:19:58.768Z,15.80
2023-02-05T18:22:49.952Z,13.40
2023-02-05T18:25:39.483Z,15.00
2023-02-05T18:28:28.626Z,18.80
2023-02-05T18:31:16.023Z,17.30
2023-02-05T18:34:07.392Z,15.50
2023-02-05T18:36:55.050Z,16.30
2023-02-05T18:39:43.780Z,12.90
2023-02-05T18:42:30.937Z,11.90
2023-02-05T18:45:19.198Z,13.00
2023-02-05T18:48:06.748Z,12.20
2023-02-05T18:50:54.808Z,12.70
2023-02-05T18:53:44.880Z,12.00
2023-02-05T18:56:32.509Z,13.10
2023-02-05T18:59:21.498Z,14.50
2023-02-05T19:02:10.929Z,15.80
2023-02-05T19:04:58.382Z,18.50
2023-02-05T19:07:48.235Z,17.60
2023-02-05T19:10:37.464Z,16.10
2023-02-05T19:13:25.158Z,16.20
2023-02-05T19:16:18.413Z,18.50
2023-02-05T19:19:07.486Z,17.50
2023-02-05T19:22:00.248Z,17.50
2023-02-05T19:24:48.419Z,16.80
2023-02-05T19:27:36.103Z,15.70
2023-02-05T19:30:24.169Z,17.40
2023-02-05T19:33:14.895Z,17.80
2023-02-05T19:36:04.647Z,18.80
2023-02-05T19:38:52.952Z,17.10
2023-02-05T19:41:41.847Z,21.30
2023-02-05T19:44:31.229Z,18.40
2023-02-05T19:47:18.685Z,15.60
2023-02-05T19:50:06.055Z,15.70
2023-02-05T19:52:53.732Z,16.10
2023-02-05T19:55:40.505Z,17.60
2023-02-05T19:58:27.577Z,17.70
2023-02-05T20:01:15.796Z,17.60
2023-02-05T20:04:09.629Z,18.10
2023-02-05T20:06:59.914Z,18.10
2023-02-05T20:09:48.969Z,17.30
2023-02-05T20:12:35.330Z,18.40
2023-02-05T20:15:22.052Z,20.00
2023-02-05T20:18:08.573Z,20.30
2023-02-05T20:20:57.951Z,19.30
2023-02-05T20:23:44.853Z,20.10
2023-02-05T20:26:31.855Z,21.70
2023-02-05T20:29:36.946Z,23.30
2023-02-05T20:32:23.485Z,21.80
2023-02-05T20:35:09.833Z,21.90
2023-02-05T20:37:56.303Z,22.30
2023-02-05T20:40:42.886Z,22.70
2023-02-05T20:43:29.448Z,23.90
2023-02-05T20:46:16.344Z,22.80
2023-02-05T20:49:03.549Z,22.50
2023-02-05T20:51:50.301Z,22.70
2023-02-05T20:54:36.974Z,23.10
2023-02-05T20:57:23.184Z,22.60
2023-02-05T21:00:11.387Z,22.50
2023-02-05T21:02:57.904Z,22.40
2023-02-05T21:05:44.756Z,23.00
2023-02-05T21:08:32.905Z,23.00
2023-02-05T21:11:21.092Z,23.80
2023-02-05T21:14:08.446Z,24.70
2023-02-05T21:16:54.772Z,25.10
2023-02-05T21:19:41.474Z,25.30
2023-02-05T21:22:28.961Z,25.50
2023-02-05T21:25:15.217Z,26.50
2023-02-05T21:28:01.826Z,25.80
2023-02-05T21:30:51.252Z,26.50
2023-02-05T21:33:37.778Z,27.80
2023-02-05T21:36:25.047Z,27.00
2023-02-05T21:39:17.656Z,27.70
2023-02-05T21:42:03.958Z,27.80
2023-02-05T21:44:53.731Z,27.40
2023-02-05T21:47:40.343Z,28.40
2023-02-05T21:50:27.025Z,28.30
2023-02-05T21:56:30.644Z,27.40
2023-02-05T21:59:17.238Z,28.40
2023-02-05T22:02:03.818Z,28.80
2023-02-05T22:04:50.466Z,28.30
2023-02-05T22:07:37.329Z,27.80
2023-02-05T22:10:23.486Z,32.80
2023-02-05T22:13:16.215Z,35.20
2023-02-05T22:16:05.425Z,42.10
2023-02-05T22:18:53.469Z,34.10
2023-02-05T22:21:42.418Z,29.60
2023-02-05T22:24:28.968Z,28.90
2023-02-05T22:27:15.659Z,28.70
2023-02-05T22:30:02.297Z,29.40
2023-02-05T22:32:48.686Z,29.70
2023-02-05T22:35:35.135Z,31.50
2023-02-05T22:38:21.546Z,33.80
2023-02-05T22:41:16.712Z,33.70
2023-02-05T22:44:04.978Z,34.60
2023-02-05T22:46:52.929Z,33.90
2023-02-05T22:49:39.479Z,31.80
2023-02-05T22:52:26.254Z,34.10
2023-02-05T22:55:12.850Z,32.60
2023-02-05T22:57:59.609Z,31.30
2023-02-05T23:00:46.386Z,31.00
2023-02-05T23:03:34.562Z,31.10
2023-02-05T23:06:23.901Z,30.60
2023-02-05T23:09:16.443Z,31.00
2023-02-05T23:12:03.304Z,30.60
2023-02-05T23:14:49.910Z,31.70
2023-02-05T23:17:36.177Z,30.40
2023-02-05T23:20:22.761Z,29.70
2023-02-05T23:23:09.392Z,30.10
2023-02-05T23:25:56.177Z,29.80
2023-02-05T23:28:42.988Z,30.20
2023-02-05T23:31:30.325Z,32.20
2023-02-05T23:34:16.927Z,33.20
2023-02-05T23:37:03.839Z,32.00
2023-02-05T23:39:52.489Z,30.70
2023-02-05T23:42:39.108Z,31.80
2023-02-05T23:45:25.413Z,32.70
2023-02-05T23:48:12.478Z,32.70
2023-02-05T23:50:59.232Z,31.80
2023-02-05T23:53:45.807Z,31.20
2023-02-05T23:56:32.325Z,30.80
2023-02-05T23:59:18.979Z,31.30
